sensor_id;sensor_type;location;lat;lon;timestamp;temperature;humidity
47336;DHT22;33068;51.990;5.926;2024-01-07T00:01:12;1.50;99.90
47336;DHT22;33068;51.990;5.926;2024-01-07T00:03:40;1.60;99.90
47336;DHT22;33068;51.990;5.926;2024-01-07T00:06:08;1.50;99.90
47336;DHT22;33068;51.990;5.926;2024-01-07T00:08:36;1.50;99.90
47336;DHT22;33068;51.990;5.926;2024-01-07T00:11:05;1.50;99.90
47336;DHT22;33068;51.990;5.926;2024-01-07T00:13:33;1.50;99.90
47336;DHT22;33068;51.990;5.926;2024-01-07T00:16:01;1.50;99.90
47336;DHT22;33068;51.990;5.926;2024-01-07T00:18:31;1.50;99.90
47336;DHT22;33068;51.990;5.926;2024-01-07T00:20:58;1.60;99.90
47336;DHT22;33068;51.990;5.926;2024-01-07T00:23:25;1.50;99.90
47336;DHT22;33068;51.990;5.926;2024-01-07T00:25:52;1.50;99.90
47336;DHT22;33068;51.990;5.926;2024-01-07T00:28:22;1.50;99.90
47336;DHT22;33068;51.990;5.926;2024-01-07T00:30:49;1.60;99.90
47336;DHT22;33068;51.990;5.926;2024-01-07T00:33:16;1.60;99.90
47336;DHT22;33068;51.990;5.926;2024-01-07T00:35:43;1.50;99.90
47336;DHT22;33068;51.990;5.926;2024-01-07T00:38:10;1.50;99.90
47336;DHT22;33068;51.990;5.926;2024-01-07T00:40:37;1.50;99.90
47336;DHT22;33068;51.990;5.926;2024-01-07T00:43:04;1.50;99.90
47336;DHT22;33068;51.990;5.926;2024-01-07T00:45:33;1.50;99.90
47336;DHT22;33068;51.990;5.926;2024-01-07T00:48:00;1.50;99.90
47336;DHT22;33068;51.990;5.926;2024-01-07T00:50:28;1.50;99.90
47336;DHT22;33068;51.990;5.926;2024-01-07T00:52:54;1.50;99.90
47336;DHT22;33068;51.990;5.926;2024-01-07T00:55:21;1.40;99.90
47336;DHT22;33068;51.990;5.926;2024-01-07T00:57:49;1.50;99.90
47336;DHT22;33068;51.990;5.926;2024-01-07T01:00:17;1.50;99.90
47336;DHT22;33068;51.990;5.926;2024-01-07T01:02:46;1.40;99.90
47336;DHT22;33068;51.990;5.926;2024-01-07T01:05:13;1.40;99.90
47336;DHT22;33068;51.990;5.926;2024-01-07T01:07:40;1.40;99.90
47336;DHT22;33068;51.990;5.926;2024-01-07T01:10:08;1.40;99.90
47336;DHT22;33068;51.990;5.926;2024-01-07T01:12:35;1.50;99.90
47336;DHT22;33068;51.990;5.926;2024-01-07T01:15:03;1.50;99.90
47336;DHT22;33068;51.990;5.926;2024-01-07T01:17:30;1.50;99.90
47336;DHT22;33068;51.990;5.926;2024-01-07T01:19:58;1.50;99.90
47336;DHT22;33068;51.990;5.926;2024-01-07T01:22:26;1.40;99.90
47336;DHT22;33068;51.990;5.926;2024-01-07T01:24:53;1.50;99.90
47336;DHT22;33068;51.990;5.926;2024-01-07T01:27:22;1.50;99.90
47336;DHT22;33068;51.990;5.926;2024-01-07T01:29:49;1.50;99.90
47336;DHT22;33068;51.990;5.926;2024-01-07T01:32:16;1.50;99.90
47336;DHT22;33068;51.990;5.926;2024-01-07T01:34:43;1.40;99.90
47336;DHT22;33068;51.990;5.926;2024-01-07T01:37:12;1.40;99.90
47336;DHT22;33068;51.990;5.926;2024-01-07T01:39:40;1.40;99.90
47336;DHT22;33068;51.990;5.926;2024-01-07T01:42:07;1.40;99.90
47336;DHT22;33068;51.990;5.926;2024-01-07T01:44:34;1.40;99.90
47336;DHT22;33068;51.990;5.926;2024-01-07T01:47:02;1.40;99.90
47336;DHT22;33068;51.990;5.926;2024-01-07T01:49:29;1.50;99.90
47336;DHT22;33068;51.990;5.926;2024-01-07T01:51:56;1.40;99.90
47336;DHT22;33068;51.990;5.926;2024-01-07T01:54:25;1.40;99.90
47336;DHT22;33068;51.990;5.926;2024-01-07T01:56:52;1.50;99.90
47336;DHT22;33068;51.990;5.926;2024-01-07T01:59:20;1.40;99.90
47336;DHT22;33068;51.990;5.926;2024-01-07T02:01:48;1.30;99.90
47336;DHT22;33068;51.990;5.926;2024-01-07T02:04:15;1.40;99.90
47336;DHT22;33068;51.990;5.926;2024-01-07T02:06:45;1.40;99.90
47336;DHT22;33068;51.990;5.926;2024-01-07T02:09:12;1.30;99.90
47336;DHT22;33068;51.990;5.926;2024-01-07T02:11:40;1.30;99.90
47336;DHT22;33068;51.990;5.926;2024-01-07T02:14:07;1.20;99.90
47336;DHT22;33068;51.990;5.926;2024-01-07T02:16:35;1.20;99.90
47336;DHT22;33068;51.990;5.926;2024-01-07T02:19:02;1.20;99.90
47336;DHT22;33068;51.990;5.926;2024-01-07T02:21:29;1.20;99.90
47336;DHT22;33068;51.990;5.926;2024-01-07T02:23:56;1.20;99.90
47336;DHT22;33068;51.990;5.926;2024-01-07T02:26:24;1.30;99.90
47336;DHT22;33068;51.990;5.926;2024-01-07T02:28:51;1.20;99.90
47336;DHT22;33068;51.990;5.926;2024-01-07T02:31:18;1.20;99.90
47336;DHT22;33068;51.990;5.926;2024-01-07T02:33:45;1.20;99.90
47336;DHT22;33068;51.990;5.926;2024-01-07T02:36:15;1.20;99.90
47336;DHT22;33068;51.990;5.926;2024-01-07T02:38:42;1.20;99.90
47336;DHT22;33068;51.990;5.926;2024-01-07T02:41:09;1.30;99.90
47336;DHT22;33068;51.990;5.926;2024-01-07T02:43:38;1.30;99.90
47336;DHT22;33068;51.990;5.926;2024-01-07T02:46:05;1.20;99.90
47336;DHT22;33068;51.990;5.926;2024-01-07T02:48:32;1.20;99.90
47336;DHT22;33068;51.990;5.926;2024-01-07T02:51:00;1.20;99.90
47336;DHT22;33068;51.990;5.926;2024-01-07T02:53:29;1.20;99.90
47336;DHT22;33068;51.990;5.926;2024-01-07T02:55:56;1.20;99.90
47336;DHT22;33068;51.990;5.926;2024-01-07T02:58:22;1.20;99.90
47336;DHT22;33068;51.990;5.926;2024-01-07T03:00:50;1.30;99.90
47336;DHT22;33068;51.990;5.926;2024-01-07T03:03:18;1.30;99.90
47336;DHT22;33068;51.990;5.926;2024-01-07T03:05:45;1.20;99.90
47336;DHT22;33068;51.990;5.926;2024-01-07T03:08:12;1.30;99.90
47336;DHT22;33068;51.990;5.926;2024-01-07T03:10:39;1.20;99.90
47336;DHT22;33068;51.990;5.926;2024-01-07T03:13:06;1.20;99.90
47336;DHT22;33068;51.990;5.926;2024-01-07T03:15:33;1.30;99.90
47336;DHT22;33068;51.990;5.926;2024-01-07T03:18:01;1.20;99.90
47336;DHT22;33068;51.990;5.926;2024-01-07T03:20:28;1.20;99.90
47336;DHT22;33068;51.990;5.926;2024-01-07T03:22:55;1.10;99.90
47336;DHT22;33068;51.990;5.926;2024-01-07T03:25:22;1.20;99.90
47336;DHT22;33068;51.990;5.926;2024-01-07T03:27:49;1.10;99.90
47336;DHT22;33068;51.990;5.926;2024-01-07T03:30:16;1.20;99.90
47336;DHT22;33068;51.990;5.926;2024-01-07T03:32:43;1.10;99.90
47336;DHT22;33068;51.990;5.926;2024-01-07T03:35:12;1.10;99.90
47336;DHT22;33068;51.990;5.926;2024-01-07T03:37:39;1.10;99.90
47336;DHT22;33068;51.990;5.926;2024-01-07T03:40:10;1.10;99.90
47336;DHT22;33068;51.990;5.926;2024-01-07T03:42:37;1.10;99.90
47336;DHT22;33068;51.990;5.926;2024-01-07T03:45:05;1.10;99.90
47336;DHT22;33068;51.990;5.926;2024-01-07T03:47:31;1.10;99.90
47336;DHT22;33068;51.990;5.926;2024-01-07T03:49:58;1.10;99.90
47336;DHT22;33068;51.990;5.926;2024-01-07T03:52:26;1.00;99.90
47336;DHT22;33068;51.990;5.926;2024-01-07T03:54:54;0.90;99.90
47336;DHT22;33068;51.990;5.926;2024-01-07T03:57:21;1.00;99.90
47336;DHT22;33068;51.990;5.926;2024-01-07T03:59:48;1.00;99.90
47336;DHT22;33068;51.990;5.926;2024-01-07T04:02:15;1.00;99.90
47336;DHT22;33068;51.990;5.926;2024-01-07T04:04:42;1.00;99.90
47336;DHT22;33068;51.990;5.926;2024-01-07T04:07:09;1.00;99.90
47336;DHT22;33068;51.990;5.926;2024-01-07T04:09:38;1.00;99.90
47336;DHT22;33068;51.990;5.926;2024-01-07T04:12:06;0.90;99.90
47336;DHT22;33068;51.990;5.926;2024-01-07T04:14:33;0.90;99.90
47336;DHT22;33068;51.990;5.926;2024-01-07T04:17:00;1.00;99.90
47336;DHT22;33068;51.990;5.926;2024-01-07T04:19:27;1.00;99.90
47336;DHT22;33068;51.990;5.926;2024-01-07T04:21:54;0.90;99.90
47336;DHT22;33068;51.990;5.926;2024-01-07T04:24:21;0.90;99.90
47336;DHT22;33068;51.990;5.926;2024-01-07T04:26:49;0.90;99.90
47336;DHT22;33068;51.990;5.926;2024-01-07T04:29:16;0.90;99.90
47336;DHT22;33068;51.990;5.926;2024-01-07T04:31:43;1.00;99.90
47336;DHT22;33068;51.990;5.926;2024-01-07T04:34:11;1.00;99.90
47336;DHT22;33068;51.990;5.926;2024-01-07T04:36:38;1.00;99.90
47336;DHT22;33068;51.990;5.926;2024-01-07T04:39:05;1.00;99.90
47336;DHT22;33068;51.990;5.926;2024-01-07T04:41:32;0.90;99.90
47336;DHT22;33068;51.990;5.926;2024-01-07T04:44:00;1.00;99.90
47336;DHT22;33068;51.990;5.926;2024-01-07T04:46:27;0.80;99.90
47336;DHT22;33068;51.990;5.926;2024-01-07T04:48:54;0.90;99.90
47336;DHT22;33068;51.990;5.926;2024-01-07T04:51:22;0.90;99.90
47336;DHT22;33068;51.990;5.926;2024-01-07T04:53:49;0.90;99.90
47336;DHT22;33068;51.990;5.926;2024-01-07T04:56:16;0.90;99.90
47336;DHT22;33068;51.990;5.926;2024-01-07T04:58:43;0.90;99.90
47336;DHT22;33068;51.990;5.926;2024-01-07T05:01:11;0.90;99.90
47336;DHT22;33068;51.990;5.926;2024-01-07T05:03:38;0.90;99.90
47336;DHT22;33068;51.990;5.926;2024-01-07T05:06:07;0.90;99.90
47336;DHT22;33068;51.990;5.926;2024-01-07T05:08:36;0.90;99.90
47336;DHT22;33068;51.990;5.926;2024-01-07T05:11:04;0.90;99.90
47336;DHT22;33068;51.990;5.926;2024-01-07T05:13:31;0.90;99.90
47336;DHT22;33068;51.990;5.926;2024-01-07T05:15:58;1.00;99.90
47336;DHT22;33068;51.990;5.926;2024-01-07T05:18:26;0.90;99.90
47336;DHT22;33068;51.990;5.926;2024-01-07T05:20:54;0.90;99.90
47336;DHT22;33068;51.990;5.926;2024-01-07T05:23:21;0.90;99.90
47336;DHT22;33068;51.990;5.926;2024-01-07T05:25:48;0.90;99.90
47336;DHT22;33068;51.990;5.926;2024-01-07T05:28:16;0.90;99.90
47336;DHT22;33068;51.990;5.926;2024-01-07T05:30:45;0.80;99.90
47336;DHT22;33068;51.990;5.926;2024-01-07T05:33:12;0.90;99.90
47336;DHT22;33068;51.990;5.926;2024-01-07T05:35:40;0.90;99.90
47336;DHT22;33068;51.990;5.926;2024-01-07T05:38:07;0.90;99.90
47336;DHT22;33068;51.990;5.926;2024-01-07T05:40:34;0.90;99.90
47336;DHT22;33068;51.990;5.926;2024-01-07T05:43:02;0.90;99.90
47336;DHT22;33068;51.990;5.926;2024-01-07T05:45:29;0.80;99.90
47336;DHT22;33068;51.990;5.926;2024-01-07T05:47:56;0.80;99.90
47336;DHT22;33068;51.990;5.926;2024-01-07T05:50:23;0.80;99.90
47336;DHT22;33068;51.990;5.926;2024-01-07T05:52:51;0.80;99.90
47336;DHT22;33068;51.990;5.926;2024-01-07T05:55:18;0.80;99.90
47336;DHT22;33068;51.990;5.926;2024-01-07T05:57:45;0.80;99.90
47336;DHT22;33068;51.990;5.926;2024-01-07T06:00:13;0.80;99.90
47336;DHT22;33068;51.990;5.926;2024-01-07T06:02:40;0.80;99.90
47336;DHT22;33068;51.990;5.926;2024-01-07T06:05:08;0.80;99.90
47336;DHT22;33068;51.990;5.926;2024-01-07T06:07:35;0.80;99.90
47336;DHT22;33068;51.990;5.926;2024-01-07T06:10:04;0.90;99.90
47336;DHT22;33068;51.990;5.926;2024-01-07T06:12:32;0.90;99.90
47336;DHT22;33068;51.990;5.926;2024-01-07T06:14:59;0.90;99.90
47336;DHT22;33068;51.990;5.926;2024-01-07T06:17:26;0.90;99.90
47336;DHT22;33068;51.990;5.926;2024-01-07T06:19:53;0.90;99.90
47336;DHT22;33068;51.990;5.926;2024-01-07T06:22:20;0.80;99.90
47336;DHT22;33068;51.990;5.926;2024-01-07T06:24:47;0.80;99.90
47336;DHT22;33068;51.990;5.926;2024-01-07T06:27:15;0.80;99.90
47336;DHT22;33068;51.990;5.926;2024-01-07T06:29:42;0.80;99.90
47336;DHT22;33068;51.990;5.926;2024-01-07T06:32:09;0.80;99.90
47336;DHT22;33068;51.990;5.926;2024-01-07T06:34:37;0.80;99.90
47336;DHT22;33068;51.990;5.926;2024-01-07T06:37:04;0.70;99.90
47336;DHT22;33068;51.990;5.926;2024-01-07T06:39:31;0.80;99.90
47336;DHT22;33068;51.990;5.926;2024-01-07T06:42:00;0.80;99.90
47336;DHT22;33068;51.990;5.926;2024-01-07T06:44:28;0.80;99.90
47336;DHT22;33068;51.990;5.926;2024-01-07T06:46:55;0.80;99.90
47336;DHT22;33068;51.990;5.926;2024-01-07T06:49:23;0.70;99.90
47336;DHT22;33068;51.990;5.926;2024-01-07T06:51:50;0.70;99.90
47336;DHT22;33068;51.990;5.926;2024-01-07T06:54:17;0.70;99.90
47336;DHT22;33068;51.990;5.926;2024-01-07T06:56:44;0.70;99.90
47336;DHT22;33068;51.990;5.926;2024-01-07T06:59:11;0.80;99.90
47336;DHT22;33068;51.990;5.926;2024-01-07T07:01:40;0.70;99.90
47336;DHT22;33068;51.990;5.926;2024-01-07T07:04:07;0.80;99.90
47336;DHT22;33068;51.990;5.926;2024-01-07T07:06:34;0.70;99.90
47336;DHT22;33068;51.990;5.926;2024-01-07T07:09:01;0.60;99.90
47336;DHT22;33068;51.990;5.926;2024-01-07T07:11:28;0.70;99.90
47336;DHT22;33068;51.990;5.926;2024-01-07T07:13:55;0.70;99.90
47336;DHT22;33068;51.990;5.926;2024-01-07T07:16:23;0.60;99.90
47336;DHT22;33068;51.990;5.926;2024-01-07T07:18:53;0.60;99.90
47336;DHT22;33068;51.990;5.926;2024-01-07T07:21:20;0.70;99.90
47336;DHT22;33068;51.990;5.926;2024-01-07T07:23:47;0.60;99.90
47336;DHT22;33068;51.990;5.926;2024-01-07T07:26:14;0.60;99.90
47336;DHT22;33068;51.990;5.926;2024-01-07T07:28:41;0.60;99.90
47336;DHT22;33068;51.990;5.926;2024-01-07T07:31:08;0.70;99.90
47336;DHT22;33068;51.990;5.926;2024-01-07T07:33:38;0.70;99.90
47336;DHT22;33068;51.990;5.926;2024-01-07T07:36:07;0.80;99.90
47336;DHT22;33068;51.990;5.926;2024-01-07T07:38:35;0.70;99.90
47336;DHT22;33068;51.990;5.926;2024-01-07T07:41:02;0.70;99.90
47336;DHT22;33068;51.990;5.926;2024-01-07T07:43:30;0.60;99.90
47336;DHT22;33068;51.990;5.926;2024-01-07T07:45:56;0.70;99.90
47336;DHT22;33068;51.990;5.926;2024-01-07T07:48:24;0.70;99.90
47336;DHT22;33068;51.990;5.926;2024-01-07T07:50:51;0.60;99.90
47336;DHT22;33068;51.990;5.926;2024-01-07T07:53:20;0.60;99.90
47336;DHT22;33068;51.990;5.926;2024-01-07T07:55:47;0.60;99.90
47336;DHT22;33068;51.990;5.926;2024-01-07T07:58:15;0.50;99.90
47336;DHT22;33068;51.990;5.926;2024-01-07T08:00:42;0.60;99.90
47336;DHT22;33068;51.990;5.926;2024-01-07T08:03:10;0.50;99.90
47336;DHT22;33068;51.990;5.926;2024-01-07T08:05:37;0.60;99.90
47336;DHT22;33068;51.990;5.926;2024-01-07T08:08:06;0.50;99.90
47336;DHT22;33068;51.990;5.926;2024-01-07T08:10:35;0.50;99.90
47336;DHT22;33068;51.990;5.926;2024-01-07T08:13:02;0.50;99.90
47336;DHT22;33068;51.990;5.926;2024-01-07T08:15:29;0.50;99.90
47336;DHT22;33068;51.990;5.926;2024-01-07T08:17:56;0.50;99.90
47336;DHT22;33068;51.990;5.926;2024-01-07T08:20:23;0.50;99.90
47336;DHT22;33068;51.990;5.926;2024-01-07T08:22:50;0.50;99.90
47336;DHT22;33068;51.990;5.926;2024-01-07T08:25:17;0.50;99.90
47336;DHT22;33068;51.990;5.926;2024-01-07T08:27:46;0.40;99.90
47336;DHT22;33068;51.990;5.926;2024-01-07T08:30:13;0.50;99.90
47336;DHT22;33068;51.990;5.926;2024-01-07T08:32:40;0.40;99.90
47336;DHT22;33068;51.990;5.926;2024-01-07T08:35:07;0.30;99.90
47336;DHT22;33068;51.990;5.926;2024-01-07T08:37:36;0.30;99.90
47336;DHT22;33068;51.990;5.926;2024-01-07T08:40:03;0.30;99.90
47336;DHT22;33068;51.990;5.926;2024-01-07T08:42:31;0.30;99.90
47336;DHT22;33068;51.990;5.926;2024-01-07T08:44:59;0.30;99.90
47336;DHT22;33068;51.990;5.926;2024-01-07T08:47:26;0.30;99.90
47336;DHT22;33068;51.990;5.926;2024-01-07T08:49:54;0.30;99.90
47336;DHT22;33068;51.990;5.926;2024-01-07T08:52:21;0.30;99.90
47336;DHT22;33068;51.990;5.926;2024-01-07T08:54:48;0.30;99.90
47336;DHT22;33068;51.990;5.926;2024-01-07T08:57:15;0.30;99.90
47336;DHT22;33068;51.990;5.926;2024-01-07T08:59:42;0.40;99.90
47336;DHT22;33068;51.990;5.926;2024-01-07T09:02:10;0.40;99.90
47336;DHT22;33068;51.990;5.926;2024-01-07T09:04:37;0.40;99.90
47336;DHT22;33068;51.990;5.926;2024-01-07T09:10:58;0.40;99.90
47336;DHT22;33068;51.990;5.926;2024-01-07T09:13:26;0.40;99.90
47336;DHT22;33068;51.990;5.926;2024-01-07T09:15:53;0.20;99.90
47336;DHT22;33068;51.990;5.926;2024-01-07T09:18:21;0.30;99.90
47336;DHT22;33068;51.990;5.926;2024-01-07T09:20:48;0.30;99.90
47336;DHT22;33068;51.990;5.926;2024-01-07T09:23:16;0.30;99.90
47336;DHT22;33068;51.990;5.926;2024-01-07T09:25:43;0.30;99.90
47336;DHT22;33068;51.990;5.926;2024-01-07T09:28:12;0.30;99.90
47336;DHT22;33068;51.990;5.926;2024-01-07T09:30:39;0.30;99.90
47336;DHT22;33068;51.990;5.926;2024-01-07T09:33:06;0.40;99.90
47336;DHT22;33068;51.990;5.926;2024-01-07T09:35:35;0.40;99.90
47336;DHT22;33068;51.990;5.926;2024-01-07T09:38:02;0.40;99.90
47336;DHT22;33068;51.990;5.926;2024-01-07T09:43:49;0.40;99.90
47336;DHT22;33068;51.990;5.926;2024-01-07T09:49:10;0.40;99.90
47336;DHT22;33068;51.990;5.926;2024-01-07T09:50:14;0.40;99.90
47336;DHT22;33068;51.990;5.926;2024-01-07T09:52:44;0.40;99.90
47336;DHT22;33068;51.990;5.926;2024-01-07T09:55:18;0.40;99.90
47336;DHT22;33068;51.990;5.926;2024-01-07T09:57:49;0.30;99.90
47336;DHT22;33068;51.990;5.926;2024-01-07T10:00:16;0.40;99.90
47336;DHT22;33068;51.990;5.926;2024-01-07T10:02:43;0.40;99.90
47336;DHT22;33068;51.990;5.926;2024-01-07T10:05:11;0.50;99.90
47336;DHT22;33068;51.990;5.926;2024-01-07T10:07:38;0.50;99.90
47336;DHT22;33068;51.990;5.926;2024-01-07T10:10:14;0.50;99.90
47336;DHT22;33068;51.990;5.926;2024-01-07T10:12:44;0.50;99.90
47336;DHT22;33068;51.990;5.926;2024-01-07T10:15:12;0.60;99.90
47336;DHT22;33068;51.990;5.926;2024-01-07T10:17:41;0.60;99.90
47336;DHT22;33068;51.990;5.926;2024-01-07T10:20:09;0.70;99.90
47336;DHT22;33068;51.990;5.926;2024-01-07T10:22:36;0.70;99.90
47336;DHT22;33068;51.990;5.926;2024-01-07T10:25:05;0.60;99.90
47336;DHT22;33068;51.990;5.926;2024-01-07T10:27:35;0.60;99.90
47336;DHT22;33068;51.990;5.926;2024-01-07T10:30:04;0.70;99.90
47336;DHT22;33068;51.990;5.926;2024-01-07T10:32:32;0.70;99.90
47336;DHT22;33068;51.990;5.926;2024-01-07T10:35:02;0.80;99.90
47336;DHT22;33068;51.990;5.926;2024-01-07T10:37:30;0.80;99.90
47336;DHT22;33068;51.990;5.926;2024-01-07T10:40:00;0.80;99.90
47336;DHT22;33068;51.990;5.926;2024-01-07T10:42:31;0.80;99.90
47336;DHT22;33068;51.990;5.926;2024-01-07T10:45:00;0.80;99.90
47336;DHT22;33068;51.990;5.926;2024-01-07T10:47:30;0.90;99.90
47336;DHT22;33068;51.990;5.926;2024-01-07T10:49:58;0.90;99.90
47336;DHT22;33068;51.990;5.926;2024-01-07T10:52:27;1.00;99.90
47336;DHT22;33068;51.990;5.926;2024-01-07T10:54:56;1.00;99.90
47336;DHT22;33068;51.990;5.926;2024-01-07T10:57:31;1.00;99.90
47336;DHT22;33068;51.990;5.926;2024-01-07T11:00:03;1.00;99.90
47336;DHT22;33068;51.990;5.926;2024-01-07T11:02:37;1.00;99.90
47336;DHT22;33068;51.990;5.926;2024-01-07T11:05:14;1.20;99.90
47336;DHT22;33068;51.990;5.926;2024-01-07T11:07:45;1.20;99.90
47336;DHT22;33068;51.990;5.926;2024-01-07T11:10:16;1.10;99.90
47336;DHT22;33068;51.990;5.926;2024-01-07T11:12:53;1.00;99.90
47336;DHT22;33068;51.990;5.926;2024-01-07T11:18:27;1.00;99.90
47336;DHT22;33068;51.990;5.926;2024-01-07T11:20:59;1.00;99.90
47336;DHT22;33068;51.990;5.926;2024-01-07T11:23:29;1.00;99.90
47336;DHT22;33068;51.990;5.926;2024-01-07T11:25:57;1.10;99.90
47336;DHT22;33068;51.990;5.926;2024-01-07T11:28:42;1.20;99.90
47336;DHT22;33068;51.990;5.926;2024-01-07T11:31:10;1.60;99.90
47336;DHT22;33068;51.990;5.926;2024-01-07T11:33:38;1.80;99.90
47336;DHT22;33068;51.990;5.926;2024-01-07T11:36:06;1.80;99.90
47336;DHT22;33068;51.990;5.926;2024-01-07T11:38:34;2.00;99.90
47336;DHT22;33068;51.990;5.926;2024-01-07T11:41:04;1.80;99.90
47336;DHT22;33068;51.990;5.926;2024-01-07T11:43:33;1.80;99.90
47336;DHT22;33068;51.990;5.926;2024-01-07T11:46:00;1.70;99.90
47336;DHT22;33068;51.990;5.926;2024-01-07T11:48:28;1.80;99.90
47336;DHT22;33068;51.990;5.926;2024-01-07T11:50:56;1.60;99.90
47336;DHT22;33068;51.990;5.926;2024-01-07T11:53:23;1.60;99.90
47336;DHT22;33068;51.990;5.926;2024-01-07T11:55:51;1.70;99.90
47336;DHT22;33068;51.990;5.926;2024-01-07T11:58:18;1.80;99.90
47336;DHT22;33068;51.990;5.926;2024-01-07T12:00:45;1.60;99.90
47336;DHT22;33068;51.990;5.926;2024-01-07T12:03:12;1.70;99.90
47336;DHT22;33068;51.990;5.926;2024-01-07T12:05:41;1.60;99.90
47336;DHT22;33068;51.990;5.926;2024-01-07T12:08:09;1.60;99.90
47336;DHT22;33068;51.990;5.926;2024-01-07T12:10:37;1.50;99.90
47336;DHT22;33068;51.990;5.926;2024-01-07T12:13:05;1.60;99.90
47336;DHT22;33068;51.990;5.926;2024-01-07T12:15:32;1.50;99.90
47336;DHT22;33068;51.990;5.926;2024-01-07T12:18:00;1.50;99.90
47336;DHT22;33068;51.990;5.926;2024-01-07T12:20:28;1.60;99.90
47336;DHT22;33068;51.990;5.926;2024-01-07T12:23:05;1.60;99.90
47336;DHT22;33068;51.990;5.926;2024-01-07T12:25:34;1.70;99.90
47336;DHT22;33068;51.990;5.926;2024-01-07T12:28:01;1.80;99.90
47336;DHT22;33068;51.990;5.926;2024-01-07T12:30:28;1.80;99.90
47336;DHT22;33068;51.990;5.926;2024-01-07T12:32:56;2.00;99.90
47336;DHT22;33068;51.990;5.926;2024-01-07T12:35:25;1.90;99.90
47336;DHT22;33068;51.990;5.926;2024-01-07T12:37:53;1.90;99.90
47336;DHT22;33068;51.990;5.926;2024-01-07T12:40:21;1.80;99.90
47336;DHT22;33068;51.990;5.926;2024-01-07T12:42:51;1.60;99.90
47336;DHT22;33068;51.990;5.926;2024-01-07T12:45:19;1.40;99.90
47336;DHT22;33068;51.990;5.926;2024-01-07T12:47:46;1.20;99.90
47336;DHT22;33068;51.990;5.926;2024-01-07T12:50:13;1.00;99.90
47336;DHT22;33068;51.990;5.926;2024-01-07T12:52:41;0.90;99.90
47336;DHT22;33068;51.990;5.926;2024-01-07T12:55:08;1.00;99.90
47336;DHT22;33068;51.990;5.926;2024-01-07T12:57:35;1.10;99.90
47336;DHT22;33068;51.990;5.926;2024-01-07T13:00:06;1.20;99.90
47336;DHT22;33068;51.990;5.926;2024-01-07T13:02:33;1.40;99.90
47336;DHT22;33068;51.990;5.926;2024-01-07T13:05:01;1.40;99.90
47336;DHT22;33068;51.990;5.926;2024-01-07T13:07:29;1.50;99.90
47336;DHT22;33068;51.990;5.926;2024-01-07T13:09:56;1.50;99.90
47336;DHT22;33068;51.990;5.926;2024-01-07T13:12:24;1.60;99.90
47336;DHT22;33068;51.990;5.926;2024-01-07T13:14:52;1.60;99.90
47336;DHT22;33068;51.990;5.926;2024-01-07T13:17:20;1.50;99.90
47336;DHT22;33068;51.990;5.926;2024-01-07T13:19:47;1.30;99.90
47336;DHT22;33068;51.990;5.926;2024-01-07T13:22:14;1.20;99.90
47336;DHT22;33068;51.990;5.926;2024-01-07T13:24:41;1.30;99.90
47336;DHT22;33068;51.990;5.926;2024-01-07T13:27:08;1.30;99.90
47336;DHT22;33068;51.990;5.926;2024-01-07T13:29:35;1.40;99.90
47336;DHT22;33068;51.990;5.926;2024-01-07T13:32:03;1.40;99.90
47336;DHT22;33068;51.990;5.926;2024-01-07T13:34:31;1.60;99.90
47336;DHT22;33068;51.990;5.926;2024-01-07T13:36:58;1.80;99.90
47336;DHT22;33068;51.990;5.926;2024-01-07T13:39:25;1.80;99.90
47336;DHT22;33068;51.990;5.926;2024-01-07T13:41:53;1.80;99.90
47336;DHT22;33068;51.990;5.926;2024-01-07T13:44:20;1.80;99.90
47336;DHT22;33068;51.990;5.926;2024-01-07T13:46:47;1.80;99.90
47336;DHT22;33068;51.990;5.926;2024-01-07T13:49:15;1.70;99.90
47336;DHT22;33068;51.990;5.926;2024-01-07T13:51:44;1.70;99.90
47336;DHT22;33068;51.990;5.926;2024-01-07T13:54:11;1.50;99.90
47336;DHT22;33068;51.990;5.926;2024-01-07T13:56:40;1.40;99.90
47336;DHT22;33068;51.990;5.926;2024-01-07T13:59:08;1.30;99.90
47336;DHT22;33068;51.990;5.926;2024-01-07T14:01:35;1.30;99.90
47336;DHT22;33068;51.990;5.926;2024-01-07T14:04:02;1.30;99.90
47336;DHT22;33068;51.990;5.926;2024-01-07T14:06:29;1.30;99.90
47336;DHT22;33068;51.990;5.926;2024-01-07T14:08:58;1.20;99.90
47336;DHT22;33068;51.990;5.926;2024-01-07T14:11:25;1.20;99.90
47336;DHT22;33068;51.990;5.926;2024-01-07T14:13:54;1.10;99.90
47336;DHT22;33068;51.990;5.926;2024-01-07T14:16:21;1.10;99.90
47336;DHT22;33068;51.990;5.926;2024-01-07T14:18:48;1.20;99.90
47336;DHT22;33068;51.990;5.926;2024-01-07T14:21:15;1.20;99.90
47336;DHT22;33068;51.990;5.926;2024-01-07T14:23:42;1.20;99.90
47336;DHT22;33068;51.990;5.926;2024-01-07T14:26:10;1.30;99.90
47336;DHT22;33068;51.990;5.926;2024-01-07T14:28:37;1.30;99.90
47336;DHT22;33068;51.990;5.926;2024-01-07T14:31:04;1.20;99.90
47336;DHT22;33068;51.990;5.926;2024-01-07T14:33:32;1.20;99.90
47336;DHT22;33068;51.990;5.926;2024-01-07T14:36:01;1.20;99.90
47336;DHT22;33068;51.990;5.926;2024-01-07T14:38:28;1.20;99.90
47336;DHT22;33068;51.990;5.926;2024-01-07T14:40:55;1.10;99.90
47336;DHT22;33068;51.990;5.926;2024-01-07T14:43:24;1.10;99.90
47336;DHT22;33068;51.990;5.926;2024-01-07T14:45:51;1.10;99.90
47336;DHT22;33068;51.990;5.926;2024-01-07T14:48:19;1.00;99.90
47336;DHT22;33068;51.990;5.926;2024-01-07T14:50:47;0.90;99.90
47336;DHT22;33068;51.990;5.926;2024-01-07T14:53:14;0.90;99.90
47336;DHT22;33068;51.990;5.926;2024-01-07T14:55:42;0.90;99.90
47336;DHT22;33068;51.990;5.926;2024-01-07T14:58:09;0.90;99.90
47336;DHT22;33068;51.990;5.926;2024-01-07T15:00:37;0.90;99.90
47336;DHT22;33068;51.990;5.926;2024-01-07T15:03:05;0.90;99.90
47336;DHT22;33068;51.990;5.926;2024-01-07T15:05:32;0.90;99.90
47336;DHT22;33068;51.990;5.926;2024-01-07T15:08:00;0.90;99.90
47336;DHT22;33068;51.990;5.926;2024-01-07T15:10:27;0.90;99.90
47336;DHT22;33068;51.990;5.926;2024-01-07T15:12:54;0.90;99.90
47336;DHT22;33068;51.990;5.926;2024-01-07T15:15:22;0.80;99.90
47336;DHT22;33068;51.990;5.926;2024-01-07T15:17:54;0.80;99.90
47336;DHT22;33068;51.990;5.926;2024-01-07T15:20:21;0.80;99.90
47336;DHT22;33068;51.990;5.926;2024-01-07T15:22:48;0.70;99.90
47336;DHT22;33068;51.990;5.926;2024-01-07T15:25:15;0.80;99.90
47336;DHT22;33068;51.990;5.926;2024-01-07T15:27:43;0.70;99.90
47336;DHT22;33068;51.990;5.926;2024-01-07T15:30:11;0.60;99.90
47336;DHT22;33068;51.990;5.926;2024-01-07T15:32:38;0.60;99.90
47336;DHT22;33068;51.990;5.926;2024-01-07T15:35:07;0.50;99.90
47336;DHT22;33068;51.990;5.926;2024-01-07T15:37:34;0.40;99.90
47336;DHT22;33068;51.990;5.926;2024-01-07T15:40:02;0.40;99.90
47336;DHT22;33068;51.990;5.926;2024-01-07T15:42:29;0.40;99.90
47336;DHT22;33068;51.990;5.926;2024-01-07T15:44:57;0.30;99.90
47336;DHT22;33068;51.990;5.926;2024-01-07T15:47:24;0.30;99.90
47336;DHT22;33068;51.990;5.926;2024-01-07T15:49:51;0.20;99.90
47336;DHT22;33068;51.990;5.926;2024-01-07T15:52:19;0.20;99.90
47336;DHT22;33068;51.990;5.926;2024-01-07T15:54:46;0.10;99.90
47336;DHT22;33068;51.990;5.926;2024-01-07T15:57:13;0.20;99.90
47336;DHT22;33068;51.990;5.926;2024-01-07T15:59:42;0.10;99.90